createdAt,value
2023-04-12T00:00:13.660Z,10.25
2023-04-12T00:02:22.240Z,5.10
2023-04-12T00:04:34.797Z,7.25
2023-04-12T00:06:42.946Z,6.97
2023-04-12T00:08:50.738Z,5.93
2023-04-12T00:10:58.575Z,6.45
2023-04-12T00:13:07.197Z,9.80
2023-04-12T00:15:15.522Z,6.28
2023-04-12T00:17:23.377Z,5.82
2023-04-12T00:19:34.277Z,5.43
2023-04-12T00:21:42.330Z,4.55
2023-04-12T00:23:50.372Z,6.28
2023-04-12T00:25:58.175Z,7.10
2023-04-12T00:28:06.418Z,7.38
2023-04-12T00:30:15.123Z,6.72
2023-04-12T00:32:23.828Z,5.32
2023-04-12T00:34:34.623Z,6.28
2023-04-12T00:36:42.500Z,5.15
2023-04-12T00:38:51.339Z,4.07
2023-04-12T00:40:59.217Z,4.22
2023-04-12T00:43:07.023Z,4.57
2023-04-12T00:45:14.906Z,5.65
2023-04-12T00:47:23.641Z,5.13
2023-04-12T00:49:37.244Z,5.15
2023-04-12T00:51:45.248Z,4.28
2023-04-12T00:53:53.110Z,4.55
2023-04-12T00:56:01.938Z,4.07
2023-04-12T00:58:09.892Z,4.07
2023-04-12T01:00:18.726Z,3.85
2023-04-12T01:02:26.986Z,6.00
2023-04-12T01:04:38.177Z,4.18
2023-04-12T01:07:04.566Z,5.85
2023-04-12T01:09:22.225Z,4.55
2023-04-12T01:11:37.147Z,4.50
2023-04-12T01:13:53.107Z,4.13
2023-04-12T01:16:12.820Z,4.45
2023-04-12T01:18:28.244Z,2.85
2023-04-12T01:20:45.110Z,3.80
2023-04-12T01:23:10.050Z,3.05
2023-04-12T01:25:29.255Z,3.28
2023-04-12T01:27:45.697Z,4.43
2023-04-12T01:29:54.148Z,5.50
2023-04-12T01:32:05.026Z,3.15
2023-04-12T01:34:15.140Z,4.32
2023-04-12T01:36:26.481Z,4.55
2023-04-12T01:38:36.272Z,6.70
2023-04-12T01:40:45.888Z,6.00
2023-04-12T01:43:07.362Z,4.43
2023-04-12T01:45:15.350Z,7.10
2023-04-12T01:47:23.550Z,3.72
2023-04-12T01:49:45.907Z,8.23
2023-04-12T01:51:58.637Z,5.80
2023-04-12T01:54:12.736Z,3.75
2023-04-12T01:56:23.223Z,4.20
2023-04-12T01:58:34.943Z,4.65
2023-04-12T02:00:44.805Z,3.83
2023-04-12T02:02:53.580Z,6.57
2023-04-12T02:05:04.255Z,4.03
2023-04-12T02:07:12.426Z,4.15
2023-04-12T02:09:20.364Z,4.68
2023-04-12T02:11:28.477Z,7.43
2023-04-12T02:13:38.982Z,4.78
2023-04-12T02:15:47.075Z,5.15
2023-04-12T02:17:55.356Z,6.15
2023-04-12T02:20:04.103Z,6.45
2023-04-12T02:22:12.306Z,8.60
2023-04-12T02:24:20.724Z,8.00
2023-04-12T02:26:28.664Z,10.35
2023-04-12T02:28:39.152Z,10.25
2023-04-12T02:30:49.539Z,10.60
2023-04-12T02:32:58.119Z,7.72
2023-04-12T02:35:13.231Z,8.70
2023-04-12T02:37:22.234Z,10.05
2023-04-12T02:39:32.341Z,8.10
2023-04-12T02:41:40.552Z,9.35
2023-04-12T02:43:55.837Z,8.80
2023-04-12T02:46:04.467Z,12.10
2023-04-12T02:48:19.920Z,11.65
2023-04-12T02:50:28.025Z,7.72
2023-04-12T02:52:43.132Z,7.88
2023-04-12T02:54:52.937Z,7.40
2023-04-12T02:57:01.761Z,8.85
2023-04-12T02:59:19.071Z,7.55
2023-04-12T03:01:46.981Z,6.72
2023-04-12T03:04:04.441Z,7.13
2023-04-12T03:06:24.529Z,9.85
2023-04-12T03:08:32.438Z,9.63
2023-04-12T03:10:40.222Z,8.13
2023-04-12T03:12:48.064Z,9.65
2023-04-12T03:15:01.354Z,7.05
2023-04-12T03:17:09.556Z,9.85
2023-04-12T03:19:18.180Z,9.73
2023-04-12T03:21:33.345Z,7.80
2023-04-12T03:23:42.636Z,8.02
2023-04-12T03:25:57.542Z,7.30
2023-04-12T03:28:15.646Z,5.25
2023-04-12T03:30:32.485Z,5.70
2023-04-12T03:32:40.418Z,5.22
2023-04-12T03:34:49.917Z,7.07
2023-04-12T03:37:03.886Z,8.93
2023-04-12T03:39:23.152Z,6.35
2023-04-12T03:41:33.073Z,8.40
2023-04-12T03:43:44.458Z,6.18
2023-04-12T03:46:01.111Z,6.25
2023-04-12T03:48:09.125Z,5.70
2023-04-12T03:50:23.746Z,6.35
2023-04-12T03:52:37.185Z,7.03
2023-04-12T03:54:47.558Z,6.43
2023-04-12T03:57:03.127Z,6.07
2023-04-12T03:59:24.319Z,11.32
2023-04-12T04:01:34.962Z,5.65
2023-04-12T04:03:43.824Z,8.20
2023-04-12T04:06:04.890Z,7.68
2023-04-12T04:08:13.463Z,5.78
2023-04-12T04:10:31.249Z,6.07
2023-04-12T04:12:39.060Z,5.15
2023-04-12T04:14:47.839Z,6.90
2023-04-12T04:17:08.544Z,6.28
2023-04-12T04:19:16.753Z,9.02
2023-04-12T04:21:27.274Z,5.65
2023-04-12T04:23:39.161Z,8.88
2023-04-12T04:25:47.975Z,5.32
2023-04-12T04:27:55.851Z,5.30
2023-04-12T04:30:07.910Z,8.10
2023-04-12T04:32:20.936Z,6.20
2023-04-12T04:34:29.810Z,6.78
2023-04-12T04:36:48.249Z,6.40
2023-04-12T04:39:04.090Z,6.05
2023-04-12T04:41:23.173Z,7.70
2023-04-12T04:43:40.227Z,5.82
2023-04-12T04:45:50.944Z,7.10
2023-04-12T04:48:01.656Z,8.65
2023-04-12T04:50:10.956Z,8.15
2023-04-12T04:52:19.800Z,8.32
2023-04-12T04:54:29.268Z,9.95
2023-04-12T04:56:37.461Z,7.25
2023-04-12T04:58:48.968Z,10.10
2023-04-12T05:00:59.840Z,7.28
2023-04-12T05:03:16.331Z,7.25
2023-04-12T05:05:27.914Z,6.85
2023-04-12T05:07:43.627Z,9.18
2023-04-12T05:09:54.464Z,9.48
2023-04-12T05:12:02.404Z,7.22
2023-04-12T05:14:12.654Z,7.07
2023-04-12T05:16:21.604Z,12.60
2023-04-12T05:18:32.346Z,8.52
2023-04-12T05:20:41.573Z,9.68
2023-04-12T05:22:49.593Z,8.55
2023-04-12T05:24:57.634Z,8.93
2023-04-12T05:27:09.428Z,10.13
2023-04-12T05:29:17.428Z,12.30
2023-04-12T05:31:28.787Z,10.52
2023-04-12T05:33:40.766Z,13.13
2023-04-12T05:35:48.938Z,10.50
2023-04-12T05:37:56.799Z,8.85
2023-04-12T05:40:07.570Z,11.77
2023-04-12T05:42:15.590Z,9.98
2023-04-12T05:44:23.656Z,11.32
2023-04-12T05:46:31.509Z,12.65
2023-04-12T05:48:42.004Z,14.07
2023-04-12T05:50:54.119Z,11.65
2023-04-12T05:53:04.367Z,9.32
2023-04-12T05:55:14.534Z,10.30
2023-04-12T05:57:22.831Z,8.63
2023-04-12T05:59:31.053Z,10.68
2023-04-12T06:01:42.920Z,10.07
2023-04-12T06:03:53.597Z,12.23
2023-04-12T06:06:02.802Z,9.43
2023-04-12T06:08:13.080Z,10.95
2023-04-12T06:10:23.003Z,9.45
2023-04-12T06:12:33.857Z,12.52
2023-04-12T06:14:41.692Z,14.68
2023-04-12T06:16:49.926Z,9.55
2023-04-12T06:19:00.728Z,9.52
2023-04-12T06:21:09.644Z,8.60
2023-04-12T06:23:19.445Z,8.75
2023-04-12T06:25:27.937Z,8.13
2023-04-12T06:27:37.263Z,8.90
2023-04-12T06:29:45.660Z,9.68
2023-04-12T06:31:53.855Z,8.95
2023-04-12T06:34:04.913Z,9.65
2023-04-12T06:36:16.463Z,9.15
2023-04-12T06:38:24.424Z,8.45
2023-04-12T06:40:32.593Z,8.95
2023-04-12T06:42:40.606Z,9.10
2023-04-12T06:44:48.477Z,10.75
2023-04-12T06:46:56.695Z,11.90
2023-04-12T06:49:07.208Z,10.38
2023-04-12T06:51:15.151Z,10.57
2023-04-12T06:53:23.093Z,10.77
2023-04-12T06:55:31.558Z,9.75
2023-04-12T06:57:39.452Z,6.90
2023-04-12T06:59:47.314Z,7.53
2023-04-12T07:01:55.221Z,8.63
2023-04-12T07:04:03.429Z,8.10
2023-04-12T07:06:24.358Z,6.95
2023-04-12T07:08:33.803Z,6.07
2023-04-12T07:10:41.657Z,5.75
2023-04-12T07:12:49.893Z,5.78
2023-04-12T07:14:57.690Z,7.57
2023-04-12T07:17:06.022Z,5.57
2023-04-12T07:19:14.001Z,5.85
2023-04-12T07:21:24.568Z,8.73
2023-04-12T07:23:33.616Z,7.28
2023-04-12T07:25:41.587Z,6.20
2023-04-12T07:27:51.582Z,7.25
2023-04-12T07:29:59.698Z,5.00
2023-04-12T07:32:07.795Z,6.07
2023-04-12T07:34:15.905Z,9.68
2023-04-12T07:36:27.642Z,6.45
2023-04-12T07:38:35.645Z,4.78
2023-04-12T07:40:43.522Z,6.95
2023-04-12T07:42:51.427Z,6.65
2023-04-12T07:44:59.498Z,5.70
2023-04-12T07:47:07.526Z,4.28
2023-04-12T07:49:15.576Z,4.00
2023-04-12T07:51:26.982Z,3.95
2023-04-12T07:53:34.922Z,4.40
2023-04-12T07:55:42.808Z,4.13
2023-04-12T07:57:50.667Z,4.30
2023-04-12T07:59:58.464Z,3.92
2023-04-12T08:02:06.701Z,4.63
2023-04-12T08:04:14.842Z,4.20
2023-04-12T08:06:22.817Z,4.20
2023-04-12T08:08:33.270Z,4.30
2023-04-12T08:10:41.748Z,4.03
2023-04-12T08:12:49.560Z,4.00
2023-04-12T08:14:57.396Z,5.57
2023-04-12T08:17:05.203Z,4.32
2023-04-12T08:19:13.481Z,5.82
2023-04-12T08:21:21.451Z,5.70
2023-04-12T08:23:29.543Z,4.13
2023-04-12T08:25:40.530Z,4.13
2023-04-12T08:27:49.132Z,4.97
2023-04-12T08:29:56.987Z,4.75
2023-04-12T08:32:05.370Z,4.03
2023-04-12T08:34:13.198Z,4.40
2023-04-12T08:36:21.158Z,5.10
2023-04-12T08:38:44.133Z,4.15
2023-04-12T08:40:57.786Z,4.45
2023-04-12T08:43:11.166Z,4.70
2023-04-12T08:45:19.118Z,5.78
2023-04-12T08:47:27.483Z,5.25
2023-04-12T08:49:36.280Z,4.25
2023-04-12T08:51:45.135Z,4.85
2023-04-12T08:53:54.358Z,4.35
2023-04-12T08:56:05.349Z,4.30
2023-04-12T08:58:13.228Z,3.47
2023-04-12T09:00:23.222Z,4.47
2023-04-12T09:02:31.653Z,3.70
2023-04-12T09:04:52.736Z,3.15
2023-04-12T09:07:00.721Z,3.30
2023-04-12T09:09:09.230Z,2.90
2023-04-12T09:11:28.032Z,3.42
2023-04-12T09:13:37.317Z,2.47
2023-04-12T09:15:52.079Z,3.00
2023-04-12T09:18:08.524Z,3.20
2023-04-12T09:20:27.203Z,4.00
2023-04-12T09:22:40.267Z,2.15
2023-04-12T09:24:53.712Z,2.90
2023-04-12T09:27:11.214Z,2.75
2023-04-12T09:29:27.900Z,2.60
2023-04-12T09:31:36.105Z,6.68
2023-04-12T09:33:44.154Z,2.67
2023-04-12T09:35:55.268Z,3.00
2023-04-12T09:38:10.600Z,3.00
2023-04-12T09:40:18.426Z,3.30
2023-04-12T09:42:33.736Z,2.72
2023-04-12T09:44:42.737Z,5.65
2023-04-12T09:46:54.816Z,2.75
2023-04-12T09:49:03.812Z,2.50
2023-04-12T09:51:12.173Z,3.08
2023-04-12T09:53:21.649Z,3.25
2023-04-12T09:55:32.414Z,2.90
2023-04-12T09:57:45.148Z,3.00
2023-04-12T09:59:53.981Z,3.10
2023-04-12T10:02:02.637Z,3.67
2023-04-12T10:04:12.002Z,3.88
2023-04-12T10:06:20.783Z,2.90
2023-04-12T10:08:29.263Z,2.97
2023-04-12T10:10:37.204Z,3.38
2023-04-12T10:12:49.399Z,6.55
2023-04-12T10:14:58.835Z,2.72
2023-04-12T10:17:07.912Z,3.90
2023-04-12T10:19:16.607Z,3.55
2023-04-12T10:21:24.985Z,2.97
2023-04-12T10:23:34.703Z,2.97
2023-04-12T10:25:43.926Z,2.65
2023-04-12T10:27:54.701Z,2.53
2023-04-12T10:30:27.285Z,3.17
2023-04-12T10:32:35.540Z,2.22
2023-04-12T10:34:45.727Z,3.30
2023-04-12T10:36:58.027Z,2.10
2023-04-12T10:39:14.935Z,3.05
2023-04-12T10:41:25.070Z,2.67
2023-04-12T10:43:35.642Z,3.00
2023-04-12T10:45:44.188Z,3.55
2023-04-12T10:48:03.656Z,3.03
2023-04-12T10:50:26.824Z,6.30
2023-04-12T10:52:44.981Z,3.05
2023-04-12T10:54:52.869Z,2.55
2023-04-12T10:57:00.981Z,2.15
2023-04-12T10:59:18.546Z,2.40
2023-04-12T11:01:28.057Z,4.25
2023-04-12T11:03:37.652Z,2.20
2023-04-12T11:06:16.092Z,3.85
2023-04-12T11:08:49.620Z,2.97
2023-04-12T11:11:08.231Z,2.45
2023-04-12T11:13:19.415Z,2.10
2023-04-12T11:15:34.666Z,1.65
2023-04-12T11:17:42.626Z,1.95
2023-04-12T11:19:57.079Z,1.80
2023-04-12T11:22:06.983Z,3.83
2023-04-12T11:24:17.258Z,2.00
2023-04-12T11:26:25.697Z,2.00
2023-04-12T11:28:35.412Z,3.20
2023-04-12T11:30:56.049Z,1.30
2023-04-12T11:33:03.923Z,1.52
2023-04-12T11:35:12.811Z,1.58
2023-04-12T11:37:23.150Z,2.17
2023-04-12T11:39:33.205Z,1.15
2023-04-12T11:41:46.610Z,2.22
2023-04-12T11:43:55.992Z,1.30
2023-04-12T11:46:07.121Z,1.65
2023-04-12T11:48:15.186Z,2.53
2023-04-12T11:50:32.815Z,1.75
2023-04-12T11:52:41.510Z,1.98
2023-04-12T11:54:50.895Z,1.42
2023-04-12T11:57:00.246Z,1.35
2023-04-12T11:59:09.043Z,1.30
2023-04-12T12:01:21.904Z,1.10
2023-04-12T12:03:30.422Z,1.85
2023-04-12T12:05:40.389Z,1.40
2023-04-12T12:07:48.712Z,1.10
2023-04-12T12:09:57.458Z,2.35
2023-04-12T12:12:06.745Z,1.45
2023-04-12T12:14:14.607Z,1.52
2023-04-12T12:16:28.950Z,2.13
2023-04-12T12:18:37.059Z,1.60
2023-04-12T12:20:46.372Z,1.15
2023-04-12T12:22:54.341Z,0.70
2023-04-12T12:25:03.474Z,1.00
2023-04-12T12:27:11.995Z,1.30
2023-04-12T12:29:22.277Z,1.20
2023-04-12T12:31:33.813Z,0.90
2023-04-12T12:33:46.995Z,1.20
2023-04-12T12:35:59.389Z,0.80
2023-04-12T12:38:10.501Z,0.98
2023-04-12T12:40:21.553Z,1.00
2023-04-12T12:42:29.770Z,1.88
2023-04-12T12:44:38.049Z,0.90
2023-04-12T12:46:56.827Z,1.20
2023-04-12T12:49:11.322Z,0.95
2023-04-12T12:51:20.416Z,1.27
2023-04-12T12:53:28.873Z,1.70
2023-04-12T12:55:36.824Z,1.77
2023-04-12T12:57:55.057Z,1.13
2023-04-12T13:00:15.587Z,0.90
2023-04-12T13:02:26.246Z,1.38
2023-04-12T13:04:34.595Z,1.20
2023-04-12T13:06:42.668Z,2.20
2023-04-12T13:08:54.783Z,1.05
2023-04-12T13:11:03.742Z,1.50
2023-04-12T13:13:11.910Z,0.98
2023-04-12T13:15:23.724Z,1.55
2023-04-12T13:17:35.317Z,0.88
2023-04-12T13:19:43.404Z,2.33
2023-04-12T13:21:53.256Z,1.77
2023-04-12T13:24:01.433Z,1.85
2023-04-12T13:26:10.074Z,1.02
2023-04-12T13:28:18.272Z,1.10
2023-04-12T13:30:26.129Z,1.02
2023-04-12T13:32:36.743Z,1.02
2023-04-12T13:34:44.722Z,3.13
2023-04-12T13:36:52.698Z,0.80
2023-04-12T13:39:00.755Z,0.80
2023-04-12T13:41:08.976Z,1.70
2023-04-12T13:43:16.870Z,0.80
2023-04-12T13:45:25.423Z,0.90
2023-04-12T13:47:36.624Z,0.80
2023-04-12T13:49:44.566Z,0.85
2023-04-12T13:51:52.557Z,2.45
2023-04-12T13:54:00.533Z,0.80
2023-04-12T13:56:09.325Z,1.13
2023-04-12T13:58:17.220Z,1.02
2023-04-12T14:00:26.098Z,0.90
2023-04-12T14:02:36.582Z,0.90
2023-04-12T14:04:54.165Z,1.00
2023-04-12T14:07:02.541Z,0.80
2023-04-12T14:09:10.351Z,0.82
2023-04-12T14:11:18.230Z,1.08
2023-04-12T14:13:26.505Z,0.80
2023-04-12T14:15:34.429Z,1.45
2023-04-12T14:17:45.066Z,3.78
2023-04-12T14:19:53.058Z,0.93
2023-04-12T14:22:02.565Z,1.10
2023-04-12T14:24:10.719Z,1.10
2023-04-12T14:26:19.090Z,0.77
2023-04-12T14:28:31.209Z,1.88
2023-04-12T14:30:39.108Z,1.20
2023-04-12T14:32:49.770Z,1.00
2023-04-12T14:34:57.640Z,0.80
2023-04-12T14:37:06.027Z,0.70
2023-04-12T14:39:14.881Z,0.90
2023-04-12T14:41:24.068Z,0.80
2023-04-12T14:43:32.008Z,0.90
2023-04-12T14:45:40.205Z,1.50
2023-04-12T14:47:50.775Z,0.80
2023-04-12T14:49:58.711Z,1.25
2023-04-12T14:52:07.156Z,0.80
2023-04-12T14:54:15.018Z,0.82
2023-04-12T14:56:25.399Z,1.10
2023-04-12T14:58:34.611Z,0.82
2023-04-12T15:00:43.018Z,0.77
2023-04-12T15:02:53.698Z,0.80
2023-04-12T15:05:07.457Z,0.82
2023-04-12T15:07:15.692Z,2.05
2023-04-12T15:09:23.522Z,1.83
2023-04-12T15:11:35.771Z,0.90
2023-04-12T15:13:44.783Z,2.22
2023-04-12T15:15:52.636Z,1.00
2023-04-12T15:18:03.483Z,0.85
2023-04-12T15:20:13.527Z,0.85
2023-04-12T15:22:22.747Z,0.82
2023-04-12T15:24:31.106Z,0.95
2023-04-12T15:26:39.172Z,1.17
2023-04-12T15:28:47.379Z,1.23
2023-04-12T15:30:56.401Z,2.38
2023-04-12T15:33:07.239Z,0.60
2023-04-12T15:35:26.151Z,1.50
2023-04-12T15:37:36.635Z,0.98
2023-04-12T15:39:45.057Z,0.60
2023-04-12T15:41:52.924Z,0.90
2023-04-12T15:44:00.812Z,0.50
2023-04-12T15:46:09.785Z,0.70
2023-04-12T15:48:20.417Z,1.50
2023-04-12T15:50:28.415Z,0.50
2023-04-12T15:52:36.493Z,0.70
2023-04-12T15:54:44.697Z,0.77
2023-04-12T15:56:53.164Z,1.38
2023-04-12T15:59:01.679Z,0.70
2023-04-12T16:01:10.441Z,1.02
2023-04-12T16:03:25.009Z,0.70
2023-04-12T16:05:34.146Z,0.73
2023-04-12T16:07:42.021Z,0.65
2023-04-12T16:09:49.965Z,0.50
2023-04-12T16:11:58.084Z,0.40
2023-04-12T16:14:05.956Z,1.25
2023-04-12T16:16:15.521Z,0.73
2023-04-12T16:18:26.119Z,0.77
2023-04-12T16:20:34.121Z,1.90
2023-04-12T16:22:42.024Z,0.85
2023-04-12T16:24:49.844Z,0.73
2023-04-12T16:26:57.725Z,1.35
2023-04-12T16:29:05.602Z,0.50
2023-04-12T16:31:16.009Z,0.70
2023-04-12T16:33:27.506Z,0.60
2023-04-12T16:35:35.384Z,1.48
2023-04-12T16:37:43.698Z,1.20
2023-04-12T16:39:51.623Z,0.73
2023-04-12T16:42:02.085Z,0.60
2023-04-12T16:44:10.935Z,0.70
2023-04-12T16:46:18.833Z,1.10
2023-04-12T16:48:29.266Z,1.00
2023-04-12T16:50:37.171Z,0.77
2023-04-12T16:52:44.952Z,1.35
2023-04-12T16:54:52.855Z,0.82
2023-04-12T16:57:00.708Z,0.60
2023-04-12T16:59:09.945Z,1.48
2023-04-12T17:01:19.429Z,2.10
2023-04-12T17:03:30.421Z,1.05
2023-04-12T17:05:40.144Z,0.68
2023-04-12T17:07:50.302Z,1.13
2023-04-12T17:09:58.234Z,1.20
2023-04-12T17:12:06.287Z,1.00
2023-04-12T17:14:15.088Z,1.42
2023-04-12T17:16:23.064Z,1.50
2023-04-12T17:18:34.859Z,1.23
2023-04-12T17:20:42.920Z,1.55
2023-04-12T17:22:52.353Z,1.23
2023-04-12T17:25:00.206Z,1.10
2023-04-12T17:27:08.193Z,0.93
2023-04-12T17:29:16.546Z,1.17
2023-04-12T17:31:27.137Z,0.98
2023-04-12T17:33:37.855Z,1.83
2023-04-12T17:35:46.250Z,1.50
2023-04-12T17:37:54.202Z,1.42
2023-04-12T17:40:02.436Z,1.13
2023-04-12T17:42:10.292Z,1.50
2023-04-12T17:44:18.205Z,1.23
2023-04-12T17:46:26.661Z,1.20
2023-04-12T17:48:37.291Z,1.13
2023-04-12T17:50:45.498Z,1.50
2023-04-12T17:52:55.507Z,1.50
2023-04-12T17:55:03.485Z,1.45
2023-04-12T17:57:11.647Z,2.33
2023-04-12T17:59:19.564Z,1.77
2023-04-12T18:01:27.600Z,1.80
2023-04-12T18:03:38.585Z,2.42
2023-04-12T18:05:46.648Z,2.03
2023-04-12T18:07:57.135Z,3.17
2023-04-12T18:10:05.637Z,1.92
2023-04-12T18:12:13.776Z,6.00
2023-04-12T18:14:22.698Z,1.77
2023-04-12T18:16:32.083Z,1.65
2023-04-12T18:18:42.643Z,2.33
2023-04-12T18:20:50.615Z,1.70
2023-04-12T18:22:58.516Z,3.15
2023-04-12T18:25:06.781Z,1.85
2023-04-12T18:27:14.678Z,2.45
2023-04-12T18:29:22.580Z,3.03
2023-04-12T18:31:30.613Z,2.50
2023-04-12T18:33:38.628Z,2.53
2023-04-12T18:35:49.163Z,2.47
2023-04-12T18:37:57.222Z,2.90
2023-04-12T18:40:07.117Z,2.90
2023-04-12T18:42:15.046Z,2.40
2023-04-12T18:44:22.929Z,1.88
2023-04-12T18:46:31.143Z,1.80
2023-04-12T18:48:39.004Z,2.20
2023-04-12T18:50:49.651Z,2.58
2023-04-12T18:52:57.538Z,2.50
2023-04-12T18:55:05.480Z,1.88
2023-04-12T18:57:13.828Z,2.47
2023-04-12T18:59:22.391Z,2.05
2023-04-12T19:01:31.176Z,2.30
2023-04-12T19:03:39.314Z,3.80
2023-04-12T19:05:49.902Z,2.67
2023-04-12T19:07:57.899Z,2.78
2023-04-12T19:10:07.286Z,2.40
2023-04-12T19:12:15.131Z,3.42
2023-04-12T19:14:23.108Z,2.72
2023-04-12T19:16:31.199Z,2.88
2023-04-12T19:18:39.246Z,2.40
2023-04-12T19:23:17.886Z,2.35
2023-04-12T19:25:30.008Z,2.10
2023-04-12T19:27:38.074Z,2.50
2023-04-12T19:29:46.680Z,2.10
2023-04-12T19:31:55.666Z,1.80
2023-04-12T19:34:05.672Z,1.92
2023-04-12T19:36:13.915Z,1.70
2023-04-12T19:38:24.818Z,2.03
2023-04-12T19:40:33.208Z,1.63
2023-04-12T19:42:41.803Z,2.45
2023-04-12T19:44:51.303Z,1.98
2023-04-12T19:46:59.945Z,1.80
2023-04-12T19:49:08.738Z,1.70
2023-04-12T19:51:17.144Z,2.00
2023-04-12T19:53:27.883Z,1.27
2023-04-12T19:55:36.126Z,1.65
2023-04-12T19:57:44.191Z,1.70
2023-04-12T20:00:04.869Z,1.80
2023-04-12T20:02:13.467Z,2.30
2023-04-12T20:04:24.351Z,1.70
2023-04-12T20:06:33.619Z,1.73
2023-04-12T20:08:44.789Z,1.55
2023-04-12T20:10:55.125Z,1.63
2023-04-12T20:13:04.383Z,1.40
2023-04-12T20:15:14.569Z,1.80
2023-04-12T20:17:22.822Z,1.80
2023-04-12T20:19:34.603Z,1.60
2023-04-12T20:21:42.731Z,1.30
2023-04-12T20:23:53.786Z,1.60
2023-04-12T20:26:02.136Z,2.13
2023-04-12T20:28:12.256Z,1.70
2023-04-12T20:30:24.370Z,1.95
2023-04-12T20:32:32.446Z,2.28
2023-04-12T20:34:47.244Z,1.70
2023-04-12T20:36:55.713Z,1.90
2023-04-12T20:39:06.791Z,1.55
2023-04-12T20:41:14.937Z,3.35
2023-04-12T20:43:22.931Z,1.35
2023-04-12T20:45:34.997Z,1.42
2023-04-12T20:47:43.242Z,1.88
2023-04-12T20:49:52.459Z,1.40
2023-04-12T20:52:01.059Z,1.67
2023-04-12T20:54:12.056Z,1.45
2023-04-12T20:56:21.711Z,1.40
2023-04-12T20:58:34.701Z,1.83
2023-04-12T21:00:42.976Z,1.40
2023-04-12T21:02:51.424Z,0.98
2023-04-12T21:04:59.583Z,1.20
2023-04-12T21:07:07.914Z,1.10
2023-04-12T21:09:18.581Z,0.73
2023-04-12T21:11:27.906Z,0.85
2023-04-12T21:13:36.623Z,0.85
2023-04-12T21:15:44.742Z,1.33
2023-04-12T21:17:52.825Z,1.30
2023-04-12T21:20:01.004Z,0.65
2023-04-12T21:22:09.912Z,0.60
2023-04-12T21:24:20.861Z,0.60
2023-04-12T21:26:28.944Z,0.50
2023-04-12T21:28:38.611Z,0.40
2023-04-12T21:30:49.561Z,1.08
2023-04-12T21:32:57.896Z,0.68
2023-04-12T21:35:07.407Z,0.50
2023-04-12T21:37:15.571Z,1.02
2023-04-12T21:39:26.377Z,1.05
2023-04-12T21:41:34.367Z,0.93
2023-04-12T21:43:42.374Z,0.57
2023-04-12T21:45:51.544Z,0.50
2023-04-12T21:47:59.729Z,0.65
2023-04-12T21:50:09.142Z,1.10
2023-04-12T21:52:20.075Z,0.50
2023-04-12T21:54:33.454Z,3.50
2023-04-12T21:56:41.640Z,0.60
2023-04-12T21:58:49.557Z,1.05
2023-04-12T22:00:57.497Z,0.65
2023-04-12T22:03:05.707Z,0.38
2023-04-12T22:05:23.393Z,0.40
2023-04-12T22:07:31.376Z,0.60
2023-04-12T22:09:42.756Z,0.70
2023-04-12T22:11:50.775Z,0.40
2023-04-12T22:13:58.955Z,0.63
2023-04-12T22:16:07.287Z,0.77
2023-04-12T22:18:18.143Z,0.77
2023-04-12T22:20:28.549Z,0.60
2023-04-12T22:22:37.362Z,0.70
2023-04-12T22:24:47.941Z,0.68
2023-04-12T22:26:57.677Z,0.73
2023-04-12T22:29:06.324Z,1.30
2023-04-12T22:31:19.472Z,0.70
2023-04-12T22:33:27.643Z,0.73
2023-04-12T22:35:36.624Z,1.45
2023-04-12T22:37:44.806Z,1.95
2023-04-12T22:39:55.366Z,0.65
2023-04-12T22:42:04.325Z,1.98
2023-04-12T22:44:12.571Z,1.20
2023-04-12T22:46:21.107Z,0.80
2023-04-12T22:48:32.430Z,0.98
2023-04-12T22:50:40.569Z,1.38
2023-04-12T22:52:52.559Z,1.00
2023-04-12T22:55:03.438Z,0.90
2023-04-12T22:57:11.317Z,0.77
2023-04-12T22:59:20.275Z,0.75
2023-04-12T23:01:29.628Z,0.75
2023-04-12T23:03:38.316Z,0.55
2023-04-12T23:05:46.373Z,1.00
2023-04-12T23:07:54.253Z,0.85
2023-04-12T23:10:05.021Z,0.85
2023-04-12T23:12:13.844Z,0.82
2023-04-12T23:14:22.994Z,1.55
2023-04-12T23:16:31.495Z,1.30
2023-04-12T23:18:39.524Z,1.40
2023-04-12T23:20:49.671Z,0.98
2023-04-12T23:22:58.516Z,0.80
2023-04-12T23:25:10.102Z,0.70
2023-04-12T23:27:19.205Z,0.70
2023-04-12T23:29:31.050Z,0.73
2023-04-12T23:31:39.043Z,1.10
2023-04-12T23:33:48.311Z,0.95
2023-04-12T23:35:56.307Z,0.60
2023-04-12T23:38:04.424Z,3.42
2023-04-12T23:40:16.554Z,0.63
2023-04-12T23:42:24.641Z,1.10
2023-04-12T23:44:34.931Z,0.75
2023-04-12T23:46:43.260Z,0.68
2023-04-12T23:48:52.870Z,0.88
2023-04-12T23:51:01.264Z,0.70
2023-04-12T23:53:09.327Z,1.00
2023-04-12T23:55:20.330Z,1.50
2023-04-12T23:57:28.868Z,0.77
2023-04-12T23:59:36.897Z,0.90
